Nerlerit Inaat

KL  EN  DA
ASIAQ
Weather Now GREENLAND SURVEY
Updated [WGT/WGST] Temperature [°C] Wind [m/s] Air pressure [hPa] Relative humidity [%] Precipitation [mm]
Present Wind chill Speed Max
17.01 13:00-7,3-17,712,8 ⇓16,3101368n/a
17.01 12:00-7,8-16,98,9 ⇓11,6101367n/a
17.01 11:00-7,6-16,68,8 ⇓11,3101360n/a
17.01 10:00-7,3-16,810,2 ⇓12,4101263n/a
17.01 09:00-7,8-16,47,8 ⇓10,1101270n/a
17.01 08:00-8,1-17,49,1 ⇓12,2101272n/a
17.01 07:00-6,7-16,912,7 ⇓15,6101272n/a
17.01 06:00-8,0-17,710,3 ⇓12,5101178n/a
17.01 05:00-6,6-15,38,9 ⇓12,1101175n/a
17.01 04:00-6,3-16,212,2 ⇓15,2101079n/a
17.01 03:00-6,2-14,78,8 ⇓11,8101180n/a
17.01 02:00-5,4-12,66,5 ⇓9,5101081n/a
17.01 01:00-5,9-14,38,7 ⇓10,8101084n/a
17.01 00:00-6,1-14,38,2 ⇓10,4101088n/a
16.01 23:00-6,6-15,59,4 ⇓11,4101190n/a
16.01 22:00-6,9-14,97,3 ⇙9,5101190n/a
16.01 21:00-7,9-17,29,3 ⇓12,7101186n/a
16.01 20:00-6,8-14,16,0 ⇓9,2101187n/a
16.01 19:00-7,7-13,84,1 ⇘6,0101186n/a
16.01 18:00-8,1-13,73,4 ⇘5,5101187n/a
16.01 17:00-8,4-13,83,2 ⇘5,3101287n/a
16.01 16:00-8,3-13,02,6 ⇘4,2101187n/a
16.01 15:00-9,2-14,73,1 ⇘3,7101188n/a
16.01 14:00-9,3-13,42,1 ⇘2,8101186n/a
16.01 13:00-9,6-13,82,1 ⇘2,8101184n/a
Position: (70.75,-22.65)

[Back]